createdAt,value
2018-06-08T00:01:28.661Z,15.17
2018-06-08T00:03:57.464Z,13.83
2018-06-08T00:06:26.240Z,19.73
2018-06-08T00:08:55.628Z,15.70
2018-06-08T00:11:24.380Z,15.47
2018-06-08T00:13:53.145Z,13.60
2018-06-08T00:16:21.890Z,13.00
2018-06-08T00:18:50.645Z,11.90
2018-06-08T00:21:19.404Z,13.60
2018-06-08T00:23:48.180Z,12.97
2018-06-08T00:26:17.121Z,17.73
2018-06-08T00:28:45.872Z,16.57
2018-06-08T00:31:14.729Z,16.07
2018-06-08T00:33:43.515Z,14.03
2018-06-08T00:36:12.257Z,16.53
2018-06-08T00:38:41.054Z,11.73
2018-06-08T00:41:09.836Z,14.03
2018-06-08T00:43:38.767Z,12.57
2018-06-08T00:46:07.668Z,14.17
2018-06-08T00:48:36.438Z,14.50
2018-06-08T00:51:05.194Z,14.63
2018-06-08T00:53:34.026Z,14.67
2018-06-08T00:56:02.799Z,13.13
2018-06-08T00:58:31.549Z,14.10
2018-06-08T01:01:00.352Z,14.00
2018-06-08T01:03:29.111Z,17.50
2018-06-08T01:05:57.904Z,11.90
2018-06-08T01:08:26.677Z,14.57
2018-06-08T01:10:55.431Z,13.17
2018-06-08T01:13:24.219Z,11.83
2018-06-08T01:15:53.055Z,14.73
2018-06-08T01:18:21.838Z,16.30
2018-06-08T01:20:50.645Z,12.53
2018-06-08T01:23:19.391Z,12.27
2018-06-08T01:25:48.178Z,12.87
2018-06-08T01:28:16.928Z,12.50
2018-06-08T01:30:45.707Z,14.87
2018-06-08T01:33:14.454Z,14.07
2018-06-08T01:35:43.195Z,13.87
2018-06-08T01:38:12.052Z,14.40
2018-06-08T01:40:40.787Z,15.77
2018-06-08T01:43:09.527Z,13.97
2018-06-08T01:45:38.301Z,19.03
2018-06-08T01:48:07.063Z,14.20
2018-06-08T01:50:35.835Z,20.37
2018-06-08T01:53:04.619Z,13.67
2018-06-08T01:55:33.381Z,13.17
2018-06-08T01:58:02.200Z,12.43
2018-06-08T02:00:31.057Z,14.20
2018-06-08T02:02:59.801Z,18.10
2018-06-08T02:05:28.553Z,13.90
2018-06-08T02:07:57.345Z,16.50
2018-06-08T02:10:26.096Z,14.83
2018-06-08T02:12:54.867Z,14.87
2018-06-08T02:15:23.619Z,17.53
2018-06-08T02:17:52.387Z,16.77
2018-06-08T02:20:21.162Z,15.83
2018-06-08T02:22:49.963Z,13.10
2018-06-08T02:25:18.743Z,13.63
2018-06-08T02:27:47.514Z,16.17
2018-06-08T02:30:16.298Z,12.60
2018-06-08T02:32:45.077Z,17.33
2018-06-08T02:35:13.860Z,18.70
2018-06-08T02:37:42.602Z,12.77
2018-06-08T02:40:11.372Z,14.80
2018-06-08T02:42:40.143Z,20.90
2018-06-08T02:45:09.068Z,18.00
2018-06-08T02:47:37.814Z,18.37
2018-06-08T02:50:06.592Z,17.73
2018-06-08T02:52:35.360Z,18.57
2018-06-08T02:55:04.194Z,17.07
2018-06-08T02:57:32.952Z,18.07
2018-06-08T03:00:01.709Z,17.27
2018-06-08T03:02:30.463Z,18.60
2018-06-08T03:04:59.221Z,15.87
2018-06-08T03:07:28.089Z,15.67
2018-06-08T03:09:56.843Z,18.50
2018-06-08T03:12:25.651Z,15.57
2018-06-08T03:14:54.397Z,16.03
2018-06-08T03:17:23.161Z,21.20
2018-06-08T03:19:51.886Z,17.50
2018-06-08T03:22:20.632Z,16.57
2018-06-08T03:24:50.074Z,11.80
2018-06-08T03:27:18.840Z,12.77
2018-06-08T03:29:47.712Z,11.57
2018-06-08T03:32:16.471Z,9.53
2018-06-08T03:34:45.235Z,10.10
2018-06-08T03:37:14.009Z,10.23
2018-06-08T03:39:42.804Z,11.67
2018-06-08T03:42:11.587Z,16.80
2018-06-08T03:44:40.336Z,14.17
2018-06-08T03:47:09.087Z,14.70
2018-06-08T03:49:37.830Z,13.60
2018-06-08T03:52:06.759Z,15.93
2018-06-08T03:54:35.516Z,16.60
2018-06-08T03:57:05.278Z,16.00
2018-06-08T03:59:34.032Z,14.10
2018-06-08T04:02:02.812Z,12.10
2018-06-08T04:04:31.566Z,13.13
2018-06-08T04:07:00.539Z,14.20
2018-06-08T04:09:29.346Z,14.17
2018-06-08T04:11:58.155Z,17.33
2018-06-08T04:14:26.917Z,16.83
2018-06-08T04:16:55.659Z,15.57
2018-06-08T04:19:24.402Z,16.37
2018-06-08T04:21:53.138Z,14.40
2018-06-08T04:24:21.919Z,16.63
2018-06-08T04:26:50.680Z,21.73
2018-06-08T04:29:19.459Z,21.40
2018-06-08T04:31:48.217Z,21.15
2018-06-08T04:34:16.985Z,17.95
2018-06-08T04:36:45.841Z,36.60
2018-06-08T04:39:14.590Z,32.17
2018-06-08T04:41:43.344Z,36.83
2018-06-08T04:44:12.092Z,35.28
2018-06-08T04:46:40.868Z,44.25
2018-06-08T04:49:09.683Z,40.73
2018-06-08T04:51:38.481Z,36.35
2018-06-08T04:54:07.255Z,35.13
2018-06-08T04:56:35.999Z,29.50
2018-06-08T04:59:04.879Z,25.52
2018-06-08T05:01:33.637Z,22.90
2018-06-08T05:04:02.426Z,25.80
2018-06-08T05:06:31.205Z,22.75
2018-06-08T05:08:59.982Z,27.05
2018-06-08T05:11:28.751Z,29.10
2018-06-08T05:13:57.484Z,24.80
2018-06-08T05:16:26.322Z,28.00
2018-06-08T05:18:55.075Z,23.15
2018-06-08T05:21:23.863Z,24.60
2018-06-08T05:23:52.621Z,20.97
2018-06-08T05:26:21.393Z,21.57
2018-06-08T05:28:50.204Z,21.13
2018-06-08T05:31:18.964Z,25.23
2018-06-08T05:33:47.766Z,18.33
2018-06-08T05:36:16.570Z,19.30
2018-06-08T05:38:45.320Z,16.10
2018-06-08T05:41:14.116Z,17.77
2018-06-08T05:43:43.000Z,22.97
2018-06-08T05:46:11.794Z,17.93
2018-06-08T05:48:40.611Z,17.67
2018-06-08T05:51:09.372Z,24.30
2018-06-08T05:53:38.166Z,20.70
2018-06-08T05:56:06.901Z,21.93
2018-06-08T05:58:35.642Z,19.83
2018-06-08T06:01:04.548Z,21.93
2018-06-08T06:03:33.327Z,18.07
2018-06-08T06:06:02.171Z,15.53
2018-06-08T06:08:30.963Z,16.37
2018-06-08T06:10:59.779Z,22.57
2018-06-08T06:13:28.541Z,24.90
2018-06-08T06:15:57.302Z,19.67
2018-06-08T06:18:26.061Z,16.50
2018-06-08T06:20:54.849Z,24.70
2018-06-08T06:23:23.639Z,19.43
2018-06-08T06:25:52.397Z,19.63
2018-06-08T06:28:21.171Z,17.33
2018-06-08T06:30:49.983Z,16.40
2018-06-08T06:33:18.722Z,12.57
2018-06-08T06:35:47.484Z,13.00
2018-06-08T06:38:16.265Z,18.43
2018-06-08T06:40:45.024Z,18.67
2018-06-08T06:43:13.801Z,15.80
2018-06-08T06:45:42.598Z,14.70
2018-06-08T06:48:11.373Z,14.63
2018-06-08T06:50:40.197Z,15.17
2018-06-08T06:53:08.998Z,11.60
2018-06-08T06:55:37.794Z,15.60
2018-06-08T06:58:06.570Z,18.37
2018-06-08T07:00:35.319Z,14.97
2018-06-08T07:03:04.061Z,14.93
2018-06-08T07:05:32.846Z,16.00
2018-06-08T07:08:01.621Z,15.50
2018-06-08T07:10:30.411Z,16.57
2018-06-08T07:12:59.195Z,21.07
2018-06-08T07:15:27.990Z,14.70
2018-06-08T07:17:56.756Z,18.03
2018-06-08T07:20:25.536Z,25.57
2018-06-08T07:22:54.291Z,20.17
2018-06-08T07:25:23.045Z,19.10
2018-06-08T07:27:51.863Z,17.40
2018-06-08T07:30:20.839Z,18.67
2018-06-08T07:32:49.615Z,19.23
2018-06-08T07:35:18.428Z,12.30
2018-06-08T07:37:47.213Z,15.70
2018-06-08T07:40:16.061Z,22.00
2018-06-08T07:42:44.834Z,16.03
2018-06-08T07:45:13.599Z,18.83
2018-06-08T07:47:42.387Z,17.53
2018-06-08T07:50:11.158Z,17.27
2018-06-08T07:52:39.946Z,13.50
2018-06-08T07:55:08.705Z,18.87
2018-06-08T07:57:37.524Z,19.37
2018-06-08T08:00:06.285Z,15.90
2018-06-08T08:02:35.063Z,21.30
2018-06-08T08:05:03.977Z,20.10
2018-06-08T08:07:32.743Z,13.00
2018-06-08T08:10:01.537Z,15.13
2018-06-08T08:12:30.330Z,11.97
2018-06-08T08:14:59.138Z,12.80
2018-06-08T08:17:27.898Z,12.30
2018-06-08T08:19:56.729Z,13.97
2018-06-08T08:22:25.510Z,14.00
2018-06-08T08:24:54.291Z,11.53
2018-06-08T08:27:23.062Z,12.17
2018-06-08T08:29:51.848Z,18.77
2018-06-08T08:32:20.619Z,16.40
2018-06-08T08:34:49.371Z,17.50
2018-06-08T08:37:18.157Z,11.07
2018-06-08T08:39:46.932Z,14.43
2018-06-08T08:42:15.783Z,13.23
2018-06-08T08:44:44.546Z,13.63
2018-06-08T08:47:13.381Z,15.33
2018-06-08T08:49:42.180Z,11.77
2018-06-08T08:52:11.018Z,11.83
2018-06-08T08:54:39.820Z,12.37
2018-06-08T08:57:08.671Z,11.63
2018-06-08T08:59:37.408Z,16.87
2018-06-08T09:02:06.306Z,13.73
2018-06-08T09:04:35.102Z,10.13
2018-06-08T09:07:03.914Z,13.43
2018-06-08T09:09:32.682Z,8.87
2018-06-08T09:12:01.463Z,10.73
2018-06-08T09:14:30.215Z,14.80
2018-06-08T09:16:58.991Z,13.63
2018-06-08T09:19:27.751Z,17.03
2018-06-08T09:21:56.567Z,13.30
2018-06-08T09:24:25.341Z,8.37
2018-06-08T09:26:54.193Z,11.97
2018-06-08T09:29:22.963Z,11.97
2018-06-08T09:31:51.755Z,9.00
2018-06-08T09:34:20.536Z,11.53
2018-06-08T09:36:49.318Z,10.33
2018-06-08T09:39:18.055Z,10.10
2018-06-08T09:41:46.838Z,14.00
2018-06-08T09:44:15.590Z,12.37
2018-06-08T09:46:44.351Z,13.43
2018-06-08T09:49:13.208Z,13.73
2018-06-08T09:51:41.970Z,10.90
2018-06-08T09:54:10.818Z,11.27
2018-06-08T09:56:39.623Z,13.13
2018-06-08T09:59:08.418Z,15.53
2018-06-08T10:01:37.256Z,12.53
2018-06-08T10:04:06.189Z,13.43
2018-06-08T10:06:34.975Z,13.57
2018-06-08T10:09:03.920Z,14.37
2018-06-08T10:11:32.747Z,10.70
2018-06-08T10:14:01.679Z,13.67
2018-06-08T10:16:30.445Z,12.07
2018-06-08T10:18:59.212Z,12.57
2018-06-08T10:21:27.996Z,11.43
2018-06-08T10:23:56.779Z,11.80
2018-06-08T10:26:25.549Z,10.30
2018-06-08T10:28:54.306Z,8.93
2018-06-08T10:31:23.104Z,12.60
2018-06-08T10:33:51.950Z,12.83
2018-06-08T10:36:20.722Z,14.70
2018-06-08T10:38:49.483Z,9.60
2018-06-08T10:41:18.742Z,12.60
2018-06-08T10:43:47.545Z,9.63
2018-06-08T10:46:16.321Z,9.77
2018-06-08T10:48:45.104Z,16.60
2018-06-08T10:51:13.888Z,10.93
2018-06-08T10:53:42.679Z,9.80
2018-06-08T10:56:11.487Z,16.67
2018-06-08T10:58:40.252Z,11.17
2018-06-08T11:01:09.050Z,13.63
2018-06-08T11:03:37.826Z,11.50
2018-06-08T11:06:06.612Z,14.70
2018-06-08T11:08:35.401Z,17.27
2018-06-08T11:11:04.215Z,16.63
2018-06-08T11:13:33.006Z,12.20
2018-06-08T11:16:01.763Z,11.90
2018-06-08T11:18:30.570Z,15.10
2018-06-08T11:20:59.331Z,10.67
2018-06-08T11:23:28.096Z,11.50
2018-06-08T11:25:56.862Z,11.53
2018-06-08T11:28:25.652Z,10.87
2018-06-08T11:30:54.438Z,14.37
2018-06-08T11:33:23.216Z,13.63
2018-06-08T11:35:52.004Z,10.40
2018-06-08T11:38:20.861Z,11.57
2018-06-08T11:40:49.693Z,11.80
2018-06-08T11:43:18.469Z,17.30
2018-06-08T11:45:47.280Z,21.13
2018-06-08T11:48:16.071Z,19.37
2018-06-08T11:50:44.832Z,10.37
2018-06-08T11:53:13.640Z,11.67
2018-06-08T11:55:42.425Z,9.00
2018-06-08T11:58:11.222Z,14.33
2018-06-08T12:00:40.041Z,13.57
2018-06-08T12:03:08.911Z,9.57
2018-06-08T12:05:37.670Z,11.80
2018-06-08T12:08:06.462Z,11.97
2018-06-08T12:10:35.224Z,13.17
2018-06-08T12:13:03.983Z,14.30
2018-06-08T12:15:32.750Z,10.83
2018-06-08T12:18:01.518Z,14.67
2018-06-08T12:20:30.282Z,12.33
2018-06-08T12:22:59.044Z,10.80
2018-06-08T12:25:27.898Z,11.20
2018-06-08T12:27:56.670Z,9.27
2018-06-08T12:30:25.441Z,17.40
2018-06-08T12:32:54.235Z,11.53
2018-06-08T12:35:23.019Z,9.77
2018-06-08T12:37:51.817Z,12.13
2018-06-08T12:40:20.622Z,19.40
2018-06-08T12:42:49.415Z,11.63
2018-06-08T12:45:18.202Z,12.00
2018-06-08T12:47:47.024Z,16.20
2018-06-08T12:50:15.821Z,9.57
2018-06-08T12:52:44.620Z,13.57
2018-06-08T12:55:13.388Z,14.00
2018-06-08T12:57:42.158Z,13.07
2018-06-08T13:00:10.952Z,10.00
2018-06-08T13:02:39.691Z,11.87
2018-06-08T13:05:08.444Z,14.43
2018-06-08T13:07:37.223Z,10.17
2018-06-08T13:10:06.079Z,10.13
2018-06-08T13:12:34.835Z,11.57
2018-06-08T13:15:03.663Z,14.07
2018-06-08T13:17:32.430Z,12.50
2018-06-08T13:20:01.207Z,14.53
2018-06-08T13:22:29.961Z,10.73
2018-06-08T13:24:58.862Z,13.17
2018-06-08T13:27:27.646Z,10.47
2018-06-08T13:29:56.406Z,13.03
2018-06-08T13:32:25.253Z,9.47
2018-06-08T13:34:54.003Z,9.50
2018-06-08T13:37:22.789Z,11.20
2018-06-08T13:39:51.570Z,14.67
2018-06-08T13:42:20.356Z,14.10
2018-06-08T13:44:49.116Z,11.97
2018-06-08T13:47:17.870Z,13.87
2018-06-08T13:49:46.652Z,10.40
2018-06-08T13:52:15.417Z,9.77
2018-06-08T13:54:44.239Z,10.87
2018-06-08T13:57:13.024Z,8.33
2018-06-08T13:59:41.885Z,11.87
2018-06-08T14:02:10.626Z,10.63
2018-06-08T14:04:39.453Z,9.93
2018-06-08T14:07:08.229Z,8.53
2018-06-08T14:09:37.405Z,8.80
2018-06-08T14:12:06.189Z,14.70
2018-06-08T14:14:34.948Z,9.57
2018-06-08T14:17:03.888Z,8.20
2018-06-08T14:19:32.675Z,9.57
2018-06-08T14:22:01.661Z,13.63
2018-06-08T14:24:30.477Z,9.73
2018-06-08T14:26:59.324Z,9.50
2018-06-08T14:29:28.103Z,11.47
2018-06-08T14:31:56.879Z,11.73
2018-06-08T14:34:25.659Z,15.87
2018-06-08T14:36:54.440Z,8.67
2018-06-08T14:39:23.364Z,11.87
2018-06-08T14:41:52.117Z,9.27
2018-06-08T14:44:20.893Z,10.60
2018-06-08T14:46:49.716Z,12.60
2018-06-08T14:49:18.492Z,13.13
2018-06-08T14:51:47.236Z,10.73
2018-06-08T14:54:16.013Z,16.27
2018-06-08T14:56:44.817Z,12.53
2018-06-08T14:59:13.629Z,10.50
2018-06-08T15:01:42.481Z,10.53
2018-06-08T15:04:11.287Z,12.80
2018-06-08T15:06:40.059Z,14.10
2018-06-08T15:09:08.844Z,11.83
2018-06-08T15:11:37.644Z,17.93
2018-06-08T15:14:07.479Z,9.67
2018-06-08T15:16:36.235Z,11.47
2018-06-08T15:19:05.060Z,14.33
2018-06-08T15:21:33.830Z,14.77
2018-06-08T15:24:02.630Z,11.43
2018-06-08T15:26:31.427Z,10.33
2018-06-08T15:29:00.236Z,13.20
2018-06-08T15:31:28.987Z,9.60
2018-06-08T15:33:57.790Z,20.20
2018-06-08T15:36:26.589Z,9.33
2018-06-08T15:38:55.362Z,9.17
2018-06-08T15:41:24.127Z,14.03
2018-06-08T15:43:52.908Z,11.03
2018-06-08T15:46:21.745Z,8.20
2018-06-08T15:48:50.495Z,7.10
2018-06-08T15:51:19.271Z,8.67
2018-06-08T15:53:48.076Z,12.37
2018-06-08T15:56:16.878Z,11.30
2018-06-08T15:58:45.681Z,15.60
2018-06-08T16:01:14.472Z,10.70
2018-06-08T16:03:43.260Z,13.97
2018-06-08T16:06:12.048Z,8.90
2018-06-08T16:08:41.021Z,12.30
2018-06-08T16:11:10.348Z,10.00
2018-06-08T16:13:39.133Z,11.43
2018-06-08T16:16:07.956Z,10.60
2018-06-08T16:18:36.735Z,9.70
2018-06-08T16:21:05.568Z,17.27
2018-06-08T16:23:34.340Z,14.30
2018-06-08T16:26:03.132Z,11.60
2018-06-08T16:28:31.889Z,14.50
2018-06-08T16:31:00.778Z,12.13
2018-06-08T16:33:29.577Z,13.03
2018-06-08T16:35:58.350Z,15.03
2018-06-08T16:38:27.156Z,15.07
2018-06-08T16:40:55.960Z,11.37
2018-06-08T16:43:24.732Z,13.83
2018-06-08T16:45:53.507Z,11.10
2018-06-08T16:48:22.319Z,14.00
2018-06-08T16:50:51.108Z,12.27
2018-06-08T16:53:20.000Z,12.53
2018-06-08T16:55:48.756Z,17.87
2018-06-08T16:58:17.521Z,15.30
2018-06-08T17:00:46.287Z,19.27
2018-06-08T17:03:15.052Z,11.03
2018-06-08T17:05:43.838Z,11.60
2018-06-08T17:08:12.580Z,11.10
2018-06-08T17:10:41.364Z,14.37
2018-06-08T17:13:10.145Z,13.93
2018-06-08T17:15:38.988Z,12.80
2018-06-08T17:18:07.882Z,12.57
2018-06-08T17:20:36.641Z,13.97
2018-06-08T17:23:05.466Z,11.77
2018-06-08T17:25:34.268Z,12.97
2018-06-08T17:28:03.064Z,15.07
2018-06-08T17:30:31.827Z,12.70
2018-06-08T17:33:00.582Z,20.10
2018-06-08T17:35:29.371Z,14.77
2018-06-08T17:37:58.196Z,13.50
2018-06-08T17:40:26.961Z,16.20
2018-06-08T17:42:55.701Z,18.83
2018-06-08T17:45:24.681Z,20.97
2018-06-08T17:47:53.443Z,22.03
2018-06-08T17:50:22.512Z,13.07
2018-06-08T17:52:51.324Z,17.30
2018-06-08T17:55:20.139Z,14.73
2018-06-08T17:57:48.917Z,14.87
2018-06-08T18:00:17.731Z,16.17
2018-06-08T18:02:46.526Z,15.83
2018-06-08T18:05:15.383Z,16.80
2018-06-08T18:07:44.181Z,15.90
2018-06-08T18:10:12.974Z,14.67
2018-06-08T18:12:41.792Z,21.43
2018-06-08T18:15:10.697Z,15.37
2018-06-08T18:17:39.588Z,19.17
2018-06-08T18:20:08.398Z,18.43
2018-06-08T18:22:37.292Z,19.90
2018-06-08T18:25:06.212Z,20.67
2018-06-08T18:27:35.018Z,19.40
2018-06-08T18:30:03.929Z,19.33
2018-06-08T18:32:32.733Z,17.43
2018-06-08T18:35:01.529Z,17.00
2018-06-08T18:37:30.313Z,17.07
2018-06-08T18:39:59.153Z,21.23
2018-06-08T18:42:27.959Z,17.07
2018-06-08T18:44:56.791Z,14.27
2018-06-08T18:47:25.569Z,16.47
2018-06-08T18:49:54.399Z,14.17
2018-06-08T18:52:23.163Z,13.03
2018-06-08T18:54:52.025Z,15.77
2018-06-08T18:57:20.827Z,17.97
2018-06-08T18:59:50.520Z,15.40
2018-06-08T19:02:19.309Z,22.23
2018-06-08T19:04:48.107Z,19.93
2018-06-08T19:07:17.014Z,16.40
2018-06-08T19:09:45.838Z,18.07
2018-06-08T19:12:14.593Z,15.90
2018-06-08T19:14:43.424Z,14.73
2018-06-08T19:17:12.253Z,12.23
2018-06-08T19:19:41.056Z,12.77
2018-06-08T19:22:09.864Z,15.30
2018-06-08T19:24:38.670Z,15.03
2018-06-08T19:27:07.532Z,15.87
2018-06-08T19:29:36.442Z,12.87
2018-06-08T19:32:05.232Z,14.80
2018-06-08T19:34:34.123Z,12.80
2018-06-08T19:37:02.985Z,18.90
2018-06-08T19:39:32.408Z,15.87
2018-06-08T19:42:01.204Z,20.97
2018-06-08T19:44:30.061Z,14.40
2018-06-08T19:46:58.891Z,20.70
2018-06-08T19:49:27.689Z,14.50
2018-06-08T19:51:56.592Z,14.80
2018-06-08T19:54:25.382Z,19.07
2018-06-08T19:56:54.165Z,15.73
2018-06-08T19:59:22.947Z,13.47
2018-06-08T20:01:51.752Z,15.87
2018-06-08T20:04:20.502Z,18.70
2018-06-08T20:06:49.338Z,20.83
2018-06-08T20:09:18.106Z,14.90
2018-06-08T20:11:46.873Z,17.93
2018-06-08T20:14:15.818Z,18.70
2018-06-08T20:16:44.709Z,21.30
2018-06-08T20:19:13.509Z,16.37
2018-06-08T20:21:42.315Z,14.13
2018-06-08T20:24:11.126Z,17.10
2018-06-08T20:26:40.062Z,14.67
2018-06-08T20:29:08.880Z,15.87
2018-06-08T20:31:37.690Z,17.53
2018-06-08T20:34:06.521Z,14.30
2018-06-08T20:36:35.417Z,17.80
2018-06-08T20:39:04.706Z,16.20
2018-06-08T20:41:33.513Z,15.80
2018-06-08T20:44:02.292Z,19.83
2018-06-08T20:46:31.112Z,18.87
2018-06-08T20:48:59.889Z,21.17
2018-06-08T20:51:28.684Z,13.93
2018-06-08T20:53:57.448Z,15.40
2018-06-08T20:56:26.224Z,14.73
2018-06-08T20:58:55.091Z,16.20
2018-06-08T21:01:23.867Z,16.43
2018-06-08T21:03:52.640Z,17.40
2018-06-08T21:06:21.404Z,24.90
2018-06-08T21:08:50.180Z,19.67
2018-06-08T21:11:18.933Z,17.67
2018-06-08T21:13:47.797Z,22.10
2018-06-08T21:16:16.592Z,17.27
2018-06-08T21:18:45.378Z,15.70
2018-06-08T21:21:14.224Z,18.57
2018-06-08T21:23:43.047Z,19.13
2018-06-08T21:26:11.843Z,15.43
2018-06-08T21:28:40.617Z,21.27
2018-06-08T21:31:09.515Z,19.93
2018-06-08T21:33:38.279Z,19.43
2018-06-08T21:36:07.066Z,17.23
2018-06-08T21:38:35.885Z,15.77
2018-06-08T21:41:04.690Z,16.20
2018-06-08T21:43:33.504Z,23.10
2018-06-08T21:46:02.258Z,198.67
2018-06-08T21:48:31.109Z,114.00
2018-06-08T21:50:59.923Z,562.10
2018-06-08T21:53:28.723Z,367.40
2018-06-08T21:55:57.486Z,47.07
2018-06-08T21:58:26.221Z,33.60
2018-06-08T22:00:55.045Z,25.90
2018-06-08T22:03:23.891Z,50.23
2018-06-08T22:05:52.754Z,132.90
2018-06-08T22:08:22.463Z,69.23
2018-06-08T22:10:51.280Z,135.73
2018-06-08T22:13:20.030Z,114.13
2018-06-08T22:15:48.800Z,60.93
2018-06-08T22:18:17.614Z,37.97
2018-06-08T22:20:46.483Z,117.60
2018-06-08T22:23:15.258Z,44.47
2018-06-08T22:25:44.032Z,96.33
2018-06-08T22:28:13.520Z,50.47
2018-06-08T22:30:42.300Z,128.43
2018-06-08T22:33:11.091Z,200.60
2018-06-08T22:35:39.862Z,130.23
2018-06-08T22:38:09.263Z,62.63
2018-06-08T22:40:38.036Z,192.17
2018-06-08T22:43:06.787Z,156.57
2018-06-08T22:45:35.528Z,36.83
2018-06-08T22:48:04.328Z,162.07
2018-06-08T22:50:33.199Z,45.30
2018-06-08T22:53:01.956Z,56.80
2018-06-08T22:55:30.714Z,201.33
2018-06-08T22:57:59.471Z,34.13
2018-06-08T23:00:28.243Z,40.60
2018-06-08T23:02:57.042Z,59.43
2018-06-08T23:05:25.824Z,48.33
2018-06-08T23:07:54.575Z,53.43
2018-06-08T23:10:23.329Z,58.47
2018-06-08T23:12:52.227Z,100.67
2018-06-08T23:15:21.001Z,80.33
2018-06-08T23:17:49.773Z,60.50
2018-06-08T23:20:18.525Z,39.63
2018-06-08T23:22:47.916Z,65.77
2018-06-08T23:25:16.669Z,64.80
2018-06-08T23:27:45.419Z,176.77
2018-06-08T23:30:14.157Z,45.97
2018-06-08T23:32:42.931Z,75.93
2018-06-08T23:35:11.734Z,76.67
2018-06-08T23:37:40.498Z,34.23
2018-06-08T23:40:09.271Z,71.70
2018-06-08T23:42:38.035Z,52.03
2018-06-08T23:45:06.809Z,90.03
2018-06-08T23:47:35.554Z,28.17
2018-06-08T23:50:04.383Z,31.23
2018-06-08T23:52:33.188Z,49.93
2018-06-08T23:55:01.952Z,35.13
2018-06-08T23:57:30.818Z,39.27
2018-06-08T23:59:59.584Z,27.13
